sensor_id;sensor_type;location;lat;lon;timestamp;pressure;altitude;pressure_sealevel;temperature;humidity
6500;BME280;3283;52.330;9.772;2022-10-16T00:00:31;100338.19;;;14.05;100.00
6500;BME280;3283;52.330;9.772;2022-10-16T00:02:57;100335.63;;;14.01;100.00
6500;BME280;3283;52.330;9.772;2022-10-16T00:05:23;100339.91;;;14.06;100.00
6500;BME280;3283;52.330;9.772;2022-10-16T00:07:49;100345.16;;;14.07;100.00
6500;BME280;3283;52.330;9.772;2022-10-16T00:10:14;100351.25;;;14.11;98.95
6500;BME280;3283;52.330;9.772;2022-10-16T00:12:40;100326.31;;;13.90;98.86
6500;BME280;3283;52.330;9.772;2022-10-16T00:15:05;100342.75;;;13.99;99.41
6500;BME280;3283;52.330;9.772;2022-10-16T00:17:31;100346.63;;;13.88;99.53
6500;BME280;3283;52.330;9.772;2022-10-16T00:19:57;100358.06;;;13.90;99.54
6500;BME280;3283;52.330;9.772;2022-10-16T00:22:24;100363.97;;;13.98;98.76
6500;BME280;3283;52.330;9.772;2022-10-16T00:24:50;100366.00;;;13.90;99.42
6500;BME280;3283;52.330;9.772;2022-10-16T00:27:15;100365.81;;;13.96;99.74
6500;BME280;3283;52.330;9.772;2022-10-16T00:29:42;100359.84;;;13.89;99.59
6500;BME280;3283;52.330;9.772;2022-10-16T00:32:08;100370.50;;;13.86;100.00
6500;BME280;3283;52.330;9.772;2022-10-16T00:34:34;100367.28;;;13.77;100.00
6500;BME280;3283;52.330;9.772;2022-10-16T00:36:59;100369.13;;;13.73;100.00
6500;BME280;3283;52.330;9.772;2022-10-16T00:39:25;100371.09;;;13.66;100.00
6500;BME280;3283;52.330;9.772;2022-10-16T00:41:51;100370.09;;;13.70;100.00
6500;BME280;3283;52.330;9.772;2022-10-16T00:44:48;100378.94;;;13.69;100.00
6500;BME280;3283;52.330;9.772;2022-10-16T00:47:37;100372.94;;;13.64;100.00
6500;BME280;3283;52.330;9.772;2022-10-16T00:50:16;100372.97;;;13.63;100.00
6500;BME280;3283;52.330;9.772;2022-10-16T00:52:46;100372.41;;;13.53;100.00
6500;BME280;3283;52.330;9.772;2022-10-16T00:55:12;100383.78;;;13.55;100.00
6500;BME280;3283;52.330;9.772;2022-10-16T00:57:38;100379.22;;;13.60;100.00
6500;BME280;3283;52.330;9.772;2022-10-16T01:00:06;100386.38;;;13.57;100.00
6500;BME280;3283;52.330;9.772;2022-10-16T01:02:33;100389.00;;;13.57;100.00
6500;BME280;3283;52.330;9.772;2022-10-16T01:04:59;100383.84;;;13.54;100.00
6500;BME280;3283;52.330;9.772;2022-10-16T01:13:19;100389.06;;;13.55;100.00
6500;BME280;3283;52.330;9.772;2022-10-16T01:19:18;100384.69;;;13.54;100.00
6500;BME280;3283;52.330;9.772;2022-10-16T01:21:47;100382.00;;;13.56;100.00
6500;BME280;3283;52.330;9.772;2022-10-16T01:24:31;100380.09;;;13.61;100.00
6500;BME280;3283;52.330;9.772;2022-10-16T01:32:41;100401.16;;;13.33;100.00
6500;BME280;3283;52.330;9.772;2022-10-16T01:35:46;100395.94;;;13.30;100.00
6500;BME280;3283;52.330;9.772;2022-10-16T01:38:39;100395.94;;;13.30;100.00
6500;BME280;3283;52.330;9.772;2022-10-16T01:41:09;100395.03;;;13.31;100.00
6500;BME280;3283;52.330;9.772;2022-10-16T01:43:40;100396.59;;;13.38;100.00
6500;BME280;3283;52.330;9.772;2022-10-16T01:46:08;100403.66;;;13.37;100.00
6500;BME280;3283;52.330;9.772;2022-10-16T01:48:35;100408.09;;;13.37;100.00
6500;BME280;3283;52.330;9.772;2022-10-16T01:51:12;100409.81;;;13.38;100.00
6500;BME280;3283;52.330;9.772;2022-10-16T01:53:39;100399.41;;;13.32;100.00
6500;BME280;3283;52.330;9.772;2022-10-16T01:56:08;100393.41;;;13.27;100.00
6500;BME280;3283;52.330;9.772;2022-10-16T01:58:41;100397.03;;;13.23;100.00
6500;BME280;3283;52.330;9.772;2022-10-16T02:01:09;100404.78;;;13.29;100.00
6500;BME280;3283;52.330;9.772;2022-10-16T02:03:37;100396.22;;;13.21;100.00
6500;BME280;3283;52.330;9.772;2022-10-16T02:06:06;100403.34;;;13.15;100.00
6500;BME280;3283;52.330;9.772;2022-10-16T02:08:32;100406.09;;;13.12;100.00
6500;BME280;3283;52.330;9.772;2022-10-16T02:11:00;100408.72;;;13.12;100.00
6500;BME280;3283;52.330;9.772;2022-10-16T02:13:33;100417.38;;;13.17;100.00
6500;BME280;3283;52.330;9.772;2022-10-16T02:15:59;100407.00;;;13.11;100.00
6500;BME280;3283;52.330;9.772;2022-10-16T02:18:26;100404.41;;;13.08;100.00
6500;BME280;3283;52.330;9.772;2022-10-16T02:21:23;100413.84;;;13.18;100.00
6500;BME280;3283;52.330;9.772;2022-10-16T02:23:59;100408.63;;;13.15;100.00
6500;BME280;3283;52.330;9.772;2022-10-16T02:26:57;100406.09;;;13.12;100.00
6500;BME280;3283;52.330;9.772;2022-10-16T02:29:24;100421.91;;;13.14;100.00
6500;BME280;3283;52.330;9.772;2022-10-16T02:31:53;100427.28;;;13.11;100.00
6500;BME280;3283;52.330;9.772;2022-10-16T02:34:21;100435.25;;;13.08;100.00
6500;BME280;3283;52.330;9.772;2022-10-16T02:36:50;100422.06;;;13.08;100.00
6500;BME280;3283;52.330;9.772;2022-10-16T02:39:16;100426.47;;;13.07;100.00
6500;BME280;3283;52.330;9.772;2022-10-16T02:41:43;100422.84;;;13.11;100.00
6500;BME280;3283;52.330;9.772;2022-10-16T02:44:09;100412.25;;;13.13;100.00
6500;BME280;3283;52.330;9.772;2022-10-16T02:46:34;100406.16;;;13.09;100.00
6500;BME280;3283;52.330;9.772;2022-10-16T02:49:00;100409.66;;;13.11;100.00
6500;BME280;3283;52.330;9.772;2022-10-16T02:51:25;100411.53;;;13.06;100.00
6500;BME280;3283;52.330;9.772;2022-10-16T02:53:51;100416.88;;;13.03;100.00
6500;BME280;3283;52.330;9.772;2022-10-16T02:56:16;100424.91;;;13.00;100.00
6500;BME280;3283;52.330;9.772;2022-10-16T02:58:41;100412.75;;;12.93;100.00
6500;BME280;3283;52.330;9.772;2022-10-16T03:01:07;100418.94;;;12.92;100.00
6500;BME280;3283;52.330;9.772;2022-10-16T03:03:33;100409.41;;;12.86;100.00
6500;BME280;3283;52.330;9.772;2022-10-16T03:05:58;100408.78;;;12.77;100.00
6500;BME280;3283;52.330;9.772;2022-10-16T03:08:23;100408.03;;;12.72;100.00
6500;BME280;3283;52.330;9.772;2022-10-16T03:10:51;100405.28;;;12.75;100.00
6500;BME280;3283;52.330;9.772;2022-10-16T03:13:16;100409.84;;;12.68;100.00
6500;BME280;3283;52.330;9.772;2022-10-16T03:15:42;100417.91;;;12.63;100.00
6500;BME280;3283;52.330;9.772;2022-10-16T03:18:07;100417.16;;;12.58;100.00
6500;BME280;3283;52.330;9.772;2022-10-16T03:20:33;100422.19;;;12.68;100.00
6500;BME280;3283;52.330;9.772;2022-10-16T03:22:58;100430.09;;;12.69;100.00
6500;BME280;3283;52.330;9.772;2022-10-16T03:25:24;100433.59;;;12.70;100.00
6500;BME280;3283;52.330;9.772;2022-10-16T03:27:49;100422.31;;;12.63;100.00
6500;BME280;3283;52.330;9.772;2022-10-16T03:30:15;100417.09;;;12.61;100.00
6500;BME280;3283;52.330;9.772;2022-10-16T03:32:44;100415.84;;;12.75;100.00
6500;BME280;3283;52.330;9.772;2022-10-16T03:35:10;100415.94;;;12.72;100.00
6500;BME280;3283;52.330;9.772;2022-10-16T03:37:35;100412.59;;;12.65;100.00
6500;BME280;3283;52.330;9.772;2022-10-16T03:40:02;100416.91;;;12.68;100.00
6500;BME280;3283;52.330;9.772;2022-10-16T03:42:28;100421.31;;;12.67;100.00
6500;BME280;3283;52.330;9.772;2022-10-16T03:44:53;100417.88;;;12.65;100.00
6500;BME280;3283;52.330;9.772;2022-10-16T03:47:19;100423.16;;;12.65;100.00
6500;BME280;3283;52.330;9.772;2022-10-16T03:49:47;100420.41;;;12.70;100.00
6500;BME280;3283;52.330;9.772;2022-10-16T03:52:13;100425.69;;;12.70;100.00
6500;BME280;3283;52.330;9.772;2022-10-16T03:54:38;100426.59;;;12.67;100.00
6500;BME280;3283;52.330;9.772;2022-10-16T03:57:04;100419.50;;;12.71;100.00
6500;BME280;3283;52.330;9.772;2022-10-16T03:59:29;100418.50;;;12.75;100.00
6500;BME280;3283;52.330;9.772;2022-10-16T04:01:55;100425.44;;;12.79;100.00
6500;BME280;3283;52.330;9.772;2022-10-16T04:04:20;100429.00;;;12.78;100.00
6500;BME280;3283;52.330;9.772;2022-10-16T04:06:46;100419.53;;;12.69;100.00
6500;BME280;3283;52.330;9.772;2022-10-16T04:09:11;100429.38;;;12.62;100.00
6500;BME280;3283;52.330;9.772;2022-10-16T04:11:36;100431.31;;;12.54;100.00
6500;BME280;3283;52.330;9.772;2022-10-16T04:14:02;100427.94;;;12.49;100.00
6500;BME280;3283;52.330;9.772;2022-10-16T04:16:28;100438.63;;;12.43;100.00
6500;BME280;3283;52.330;9.772;2022-10-16T04:18:53;100443.94;;;12.42;100.00
6500;BME280;3283;52.330;9.772;2022-10-16T04:21:18;100451.06;;;12.38;100.00
6500;BME280;3283;52.330;9.772;2022-10-16T04:23:44;100445.78;;;12.38;100.00
6500;BME280;3283;52.330;9.772;2022-10-16T04:26:09;100451.28;;;12.29;100.00
6500;BME280;3283;52.330;9.772;2022-10-16T04:28:36;100458.38;;;12.27;100.00
6500;BME280;3283;52.330;9.772;2022-10-16T04:31:05;100459.25;;;12.26;100.00
6500;BME280;3283;52.330;9.772;2022-10-16T04:33:30;100458.38;;;12.25;100.00
6500;BME280;3283;52.330;9.772;2022-10-16T04:35:57;100458.19;;;12.33;100.00
6500;BME280;3283;52.330;9.772;2022-10-16T04:38:23;100447.91;;;12.22;100.00
6500;BME280;3283;52.330;9.772;2022-10-16T04:40:49;100468.84;;;12.30;100.00
6500;BME280;3283;52.330;9.772;2022-10-16T04:43:14;100459.97;;;12.34;100.00
6500;BME280;3283;52.330;9.772;2022-10-16T04:45:40;100449.41;;;12.32;100.00
6500;BME280;3283;52.330;9.772;2022-10-16T04:48:05;100455.25;;;12.47;100.00
6500;BME280;3283;52.330;9.772;2022-10-16T04:50:30;100447.16;;;12.54;100.00
6500;BME280;3283;52.330;9.772;2022-10-16T04:52:56;100446.94;;;12.63;100.00
6500;BME280;3283;52.330;9.772;2022-10-16T04:55:21;100462.56;;;12.73;100.00
6500;BME280;3283;52.330;9.772;2022-10-16T04:57:47;100462.31;;;12.82;100.00
6500;BME280;3283;52.330;9.772;2022-10-16T05:00:12;100454.63;;;12.73;100.00
6500;BME280;3283;52.330;9.772;2022-10-16T05:02:38;100458.19;;;12.72;100.00
6500;BME280;3283;52.330;9.772;2022-10-16T05:05:03;100456.56;;;12.66;100.00
6500;BME280;3283;52.330;9.772;2022-10-16T05:07:29;100461.84;;;12.66;100.00
6500;BME280;3283;52.330;9.772;2022-10-16T05:09:54;100468.06;;;12.63;100.00
6500;BME280;3283;52.330;9.772;2022-10-16T05:12:20;100476.66;;;12.72;100.00
6500;BME280;3283;52.330;9.772;2022-10-16T05:14:45;100471.25;;;12.78;100.00
6500;BME280;3283;52.330;9.772;2022-10-16T05:17:11;100472.16;;;12.75;100.00
6500;BME280;3283;52.330;9.772;2022-10-16T05:19:36;100468.13;;;12.60;100.00
6500;BME280;3283;52.330;9.772;2022-10-16T05:22:02;100484.75;;;12.65;100.00
6500;BME280;3283;52.330;9.772;2022-10-16T05:24:27;100480.38;;;12.64;100.00
6500;BME280;3283;52.330;9.772;2022-10-16T05:26:53;100487.84;;;12.83;100.00
6500;BME280;3283;52.330;9.772;2022-10-16T05:29:19;100497.28;;;12.93;100.00
6500;BME280;3283;52.330;9.772;2022-10-16T05:31:44;100485.03;;;12.89;100.00
6500;BME280;3283;52.330;9.772;2022-10-16T05:34:10;100495.59;;;12.89;100.00
6500;BME280;3283;52.330;9.772;2022-10-16T05:36:35;100500.97;;;12.86;100.00
6500;BME280;3283;52.330;9.772;2022-10-16T05:39:01;100492.38;;;12.78;100.00
6500;BME280;3283;52.330;9.772;2022-10-16T05:41:26;100493.19;;;12.80;100.00
6500;BME280;3283;52.330;9.772;2022-10-16T05:43:52;100492.44;;;12.75;100.00
6500;BME280;3283;52.330;9.772;2022-10-16T05:46:18;100498.63;;;12.74;100.00
6500;BME280;3283;52.330;9.772;2022-10-16T05:48:43;100492.50;;;12.72;100.00
6500;BME280;3283;52.330;9.772;2022-10-16T05:51:11;100495.25;;;12.69;100.00
6500;BME280;3283;52.330;9.772;2022-10-16T05:53:38;100501.41;;;12.68;100.00
6500;BME280;3283;52.330;9.772;2022-10-16T05:56:05;100499.66;;;12.67;100.00
6500;BME280;3283;52.330;9.772;2022-10-16T05:58:35;100505.03;;;12.63;100.00
6500;BME280;3283;52.330;9.772;2022-10-16T06:01:04;100520.06;;;12.61;100.00
6500;BME280;3283;52.330;9.772;2022-10-16T06:03:30;100520.16;;;12.57;100.00
6500;BME280;3283;52.330;9.772;2022-10-16T06:05:55;100517.50;;;12.57;100.00
6500;BME280;3283;52.330;9.772;2022-10-16T06:08:22;100520.19;;;12.54;100.00
6500;BME280;3283;52.330;9.772;2022-10-16T06:10:48;100516.81;;;12.49;100.00
6500;BME280;3283;52.330;9.772;2022-10-16T06:13:15;100523.00;;;12.46;100.00
6500;BME280;3283;52.330;9.772;2022-10-16T06:15:42;100530.16;;;12.43;100.00
6500;BME280;3283;52.330;9.772;2022-10-16T06:18:08;100525.72;;;12.43;100.00
6500;BME280;3283;52.330;9.772;2022-10-16T06:20:35;100532.75;;;12.44;100.00
6500;BME280;3283;52.330;9.772;2022-10-16T06:23:00;100524.03;;;12.39;100.00
6500;BME280;3283;52.330;9.772;2022-10-16T06:25:25;100544.13;;;12.46;100.00
6500;BME280;3283;52.330;9.772;2022-10-16T06:27:51;100543.22;;;12.47;100.00
6500;BME280;3283;52.330;9.772;2022-10-16T06:30:16;100544.13;;;12.48;100.00
6500;BME280;3283;52.330;9.772;2022-10-16T06:32:42;100558.09;;;12.51;100.00
6500;BME280;3283;52.330;9.772;2022-10-16T06:35:07;100558.88;;;12.56;100.00
6500;BME280;3283;52.330;9.772;2022-10-16T06:37:33;100550.06;;;12.57;100.00
6500;BME280;3283;52.330;9.772;2022-10-16T06:39:58;100548.91;;;12.69;100.00
6500;BME280;3283;52.330;9.772;2022-10-16T06:42:25;100547.00;;;12.76;100.00
6500;BME280;3283;52.330;9.772;2022-10-16T06:44:51;100558.16;;;12.87;100.00
6500;BME280;3283;52.330;9.772;2022-10-16T06:47:16;100561.41;;;13.00;100.00
6500;BME280;3283;52.330;9.772;2022-10-16T06:49:42;100556.59;;;13.15;100.00
6500;BME280;3283;52.330;9.772;2022-10-16T06:52:07;100552.00;;;13.25;100.00
6500;BME280;3283;52.330;9.772;2022-10-16T06:54:32;100553.34;;;13.41;100.00
6500;BME280;3283;52.330;9.772;2022-10-16T06:56:58;100560.88;;;13.57;100.00
6500;BME280;3283;52.330;9.772;2022-10-16T06:59:25;100559.69;;;13.68;100.00
6500;BME280;3283;52.330;9.772;2022-10-16T07:01:50;100546.13;;;13.81;100.00
6500;BME280;3283;52.330;9.772;2022-10-16T07:04:16;100552.91;;;13.91;100.00
6500;BME280;3283;52.330;9.772;2022-10-16T07:06:41;100552.47;;;14.06;100.00
6500;BME280;3283;52.330;9.772;2022-10-16T07:09:09;100558.88;;;14.28;100.00
6500;BME280;3283;52.330;9.772;2022-10-16T07:11:37;100561.84;;;14.49;100.00
6500;BME280;3283;52.330;9.772;2022-10-16T07:14:03;100565.06;;;14.60;100.00
6500;BME280;3283;52.330;9.772;2022-10-16T07:16:30;100582.31;;;14.73;100.00
6500;BME280;3283;52.330;9.772;2022-10-16T07:19:01;100594.53;;;14.77;100.00
6500;BME280;3283;52.330;9.772;2022-10-16T07:21:28;100587.75;;;14.69;100.00
6500;BME280;3283;52.330;9.772;2022-10-16T07:23:57;100592.06;;;14.71;100.00
6500;BME280;3283;52.330;9.772;2022-10-16T07:26:23;100600.34;;;14.61;100.00
6500;BME280;3283;52.330;9.772;2022-10-16T07:28:49;100600.72;;;14.48;100.00
6500;BME280;3283;52.330;9.772;2022-10-16T07:31:16;100608.44;;;14.56;100.00
6500;BME280;3283;52.330;9.772;2022-10-16T07:33:43;100609.97;;;14.63;100.00
6500;BME280;3283;52.330;9.772;2022-10-16T07:36:10;100616.69;;;14.44;100.00
6500;BME280;3283;52.330;9.772;2022-10-16T07:38:36;100621.06;;;14.46;100.00
6500;BME280;3283;52.330;9.772;2022-10-16T07:41:04;100618.22;;;14.54;100.00
6500;BME280;3283;52.330;9.772;2022-10-16T07:43:30;100623.16;;;14.66;100.00
6500;BME280;3283;52.330;9.772;2022-10-16T07:45:56;100627.59;;;14.94;100.00
6500;BME280;3283;52.330;9.772;2022-10-16T07:48:23;100643.00;;;15.10;100.00
6500;BME280;3283;52.330;9.772;2022-10-16T07:50:49;100649.88;;;15.16;100.00
6500;BME280;3283;52.330;9.772;2022-10-16T07:53:14;100640.41;;;15.09;100.00
6500;BME280;3283;52.330;9.772;2022-10-16T07:55:40;100647.38;;;15.11;100.00
6500;BME280;3283;52.330;9.772;2022-10-16T07:58:06;100645.03;;;15.01;100.00
6500;BME280;3283;52.330;9.772;2022-10-16T08:00:32;100649.72;;;14.93;100.00
6500;BME280;3283;52.330;9.772;2022-10-16T08:02:58;100642.44;;;14.99;100.00
6500;BME280;3283;52.330;9.772;2022-10-16T08:05:30;100656.88;;;15.19;100.00
6500;BME280;3283;52.330;9.772;2022-10-16T08:07:56;100665.97;;;15.38;100.00
6500;BME280;3283;52.330;9.772;2022-10-16T08:10:25;100666.47;;;15.51;100.00
6500;BME280;3283;52.330;9.772;2022-10-16T08:12:52;100668.03;;;15.56;100.00
6500;BME280;3283;52.330;9.772;2022-10-16T08:15:19;100672.09;;;15.95;100.00
6500;BME280;3283;52.330;9.772;2022-10-16T08:17:45;100676.06;;;16.08;100.00
6500;BME280;3283;52.330;9.772;2022-10-16T08:20:18;100686.19;;;16.46;100.00
6500;BME280;3283;52.330;9.772;2022-10-16T08:22:44;100678.94;;;16.52;100.00
6500;BME280;3283;52.330;9.772;2022-10-16T08:25:09;100683.59;;;16.45;100.00
6500;BME280;3283;52.330;9.772;2022-10-16T08:27:35;100695.50;;;16.33;100.00
6500;BME280;3283;52.330;9.772;2022-10-16T08:30:00;100690.19;;;16.33;100.00
6500;BME280;3283;52.330;9.772;2022-10-16T08:32:25;100687.06;;;16.22;100.00
6500;BME280;3283;52.330;9.772;2022-10-16T08:34:51;100687.94;;;16.23;100.00
6500;BME280;3283;52.330;9.772;2022-10-16T08:37:18;100682.56;;;16.24;100.00
6500;BME280;3283;52.330;9.772;2022-10-16T08:39:44;100685.34;;;16.21;100.00
6500;BME280;3283;52.330;9.772;2022-10-16T08:48:11;100698.50;;;16.24;100.00
6500;BME280;3283;52.330;9.772;2022-10-16T08:50:40;100703.44;;;16.10;100.00
6500;BME280;3283;52.330;9.772;2022-10-16T08:53:06;100709.19;;;15.96;100.00
6500;BME280;3283;52.330;9.772;2022-10-16T08:58:12;100713.66;;;16.20;100.00
6500;BME280;3283;52.330;9.772;2022-10-16T09:00:39;100718.75;;;16.28;99.88
6500;BME280;3283;52.330;9.772;2022-10-16T09:11:12;100722.91;;;16.85;97.38
6500;BME280;3283;52.330;9.772;2022-10-16T09:13:48;100716.44;;;16.92;96.19
6500;BME280;3283;52.330;9.772;2022-10-16T09:16:19;100725.09;;;16.97;95.54
6500;BME280;3283;52.330;9.772;2022-10-16T09:22:15;100734.75;;;17.00;95.29
6500;BME280;3283;52.330;9.772;2022-10-16T09:24:42;100734.47;;;17.08;94.95
6500;BME280;3283;52.330;9.772;2022-10-16T09:27:11;100740.13;;;17.22;93.85
6500;BME280;3283;52.330;9.772;2022-10-16T09:29:38;100739.25;;;17.21;93.69
6500;BME280;3283;52.330;9.772;2022-10-16T09:32:13;100747.03;;;17.26;93.17
6500;BME280;3283;52.330;9.772;2022-10-16T09:34:49;100752.66;;;17.18;92.28
6500;BME280;3283;52.330;9.772;2022-10-16T09:37:18;100753.28;;;17.25;93.17
6500;BME280;3283;52.330;9.772;2022-10-16T09:39:52;100753.28;;;17.25;91.59
6500;BME280;3283;52.330;9.772;2022-10-16T09:42:31;100752.38;;;17.26;91.88
6500;BME280;3283;52.330;9.772;2022-10-16T09:44:57;100756.28;;;17.39;92.72
6500;BME280;3283;52.330;9.772;2022-10-16T09:47:24;100748.22;;;17.42;90.90
6500;BME280;3283;52.330;9.772;2022-10-16T09:52:26;100764.44;;;17.58;90.23
6500;BME280;3283;52.330;9.772;2022-10-16T09:55:01;100764.44;;;17.58;89.45
6500;BME280;3283;52.330;9.772;2022-10-16T09:57:27;100767.59;;;17.68;89.42
6500;BME280;3283;52.330;9.772;2022-10-16T09:59:56;100771.91;;;17.72;88.12
6500;BME280;3283;52.330;9.772;2022-10-16T10:02:35;100770.66;;;17.80;88.42
6500;BME280;3283;52.330;9.772;2022-10-16T10:05:05;100778.81;;;17.76;84.73
6500;BME280;3283;52.330;9.772;2022-10-16T10:07:43;100791.97;;;17.80;85.81
6500;BME280;3283;52.330;9.772;2022-10-16T10:10:22;100793.81;;;17.78;84.79
6500;BME280;3283;52.330;9.772;2022-10-16T10:12:48;100793.56;;;17.61;85.51
6500;BME280;3283;52.330;9.772;2022-10-16T10:15:14;100774.56;;;17.72;85.33
6500;BME280;3283;52.330;9.772;2022-10-16T10:17:57;100784.84;;;17.81;84.64
6500;BME280;3283;52.330;9.772;2022-10-16T10:22:48;100789.59;;;18.17;84.29
6500;BME280;3283;52.330;9.772;2022-10-16T10:31:41;100795.59;;;18.22;82.76
6500;BME280;3283;52.330;9.772;2022-10-16T10:36:40;100806.78;;;18.30;80.56
6500;BME280;3283;52.330;9.772;2022-10-16T10:39:15;100806.13;;;18.45;79.15
6500;BME280;3283;52.330;9.772;2022-10-16T10:41:58;100802.41;;;18.71;79.89
6500;BME280;3283;52.330;9.772;2022-10-16T10:50:25;100818.47;;;18.90;75.71
6500;BME280;3283;52.330;9.772;2022-10-16T11:07:28;100812.63;;;17.96;76.74
6500;BME280;3283;52.330;9.772;2022-10-16T11:10:26;100818.50;;;18.04;77.67
6500;BME280;3283;52.330;9.772;2022-10-16T11:13:10;100819.34;;;18.06;76.80
6500;BME280;3283;52.330;9.772;2022-10-16T11:15:43;100825.28;;;18.13;77.58
6500;BME280;3283;52.330;9.772;2022-10-16T11:18:19;100823.06;;;18.44;77.07
6500;BME280;3283;52.330;9.772;2022-10-16T11:20:54;100825.47;;;18.50;76.62
6500;BME280;3283;52.330;9.772;2022-10-16T11:23:28;100822.41;;;18.59;76.66
6500;BME280;3283;52.330;9.772;2022-10-16T11:25:59;100828.06;;;18.74;75.63
6500;BME280;3283;52.330;9.772;2022-10-16T11:28:32;100829.59;;;18.37;75.61
6500;BME280;3283;52.330;9.772;2022-10-16T11:31:05;100831.09;;;18.00;75.60
6500;BME280;3283;52.330;9.772;2022-10-16T11:38:56;100843.47;;;18.23;76.84
6500;BME280;3283;52.330;9.772;2022-10-16T11:41:29;100848.78;;;18.45;75.26
6500;BME280;3283;52.330;9.772;2022-10-16T11:49:58;100843.06;;;18.76;73.82
6500;BME280;3283;52.330;9.772;2022-10-16T11:55:05;100840.06;;;18.84;73.40
6500;BME280;3283;52.330;9.772;2022-10-16T11:57:47;100831.56;;;18.94;73.00
6500;BME280;3283;52.330;9.772;2022-10-16T12:02:54;100835.50;;;19.06;72.88
6500;BME280;3283;52.330;9.772;2022-10-16T12:05:35;100849.53;;;19.11;73.71
6500;BME280;3283;52.330;9.772;2022-10-16T12:10:33;100848.03;;;19.43;71.78
6500;BME280;3283;52.330;9.772;2022-10-16T12:13:48;100855.28;;;19.41;72.12
6500;BME280;3283;52.330;9.772;2022-10-16T12:15:48;100854.91;;;19.49;72.66
6500;BME280;3283;52.330;9.772;2022-10-16T12:18:22;100856.63;;;19.70;71.79
6500;BME280;3283;52.330;9.772;2022-10-16T12:20:55;100854.31;;;19.82;71.18
6500;BME280;3283;52.330;9.772;2022-10-16T12:23:24;100852.94;;;19.92;71.07
6500;BME280;3283;52.330;9.772;2022-10-16T12:25:55;100857.63;;;19.87;70.15
6500;BME280;3283;52.330;9.772;2022-10-16T12:28:25;100857.50;;;19.90;70.95
6500;BME280;3283;52.330;9.772;2022-10-16T12:30:55;100850.91;;;19.78;71.15
6500;BME280;3283;52.330;9.772;2022-10-16T12:33:27;100857.88;;;19.43;70.96
6500;BME280;3283;52.330;9.772;2022-10-16T12:35:53;100850.72;;;19.25;70.85
6500;BME280;3283;52.330;9.772;2022-10-16T12:41:00;100859.31;;;19.50;71.72
6500;BME280;3283;52.330;9.772;2022-10-16T12:43:27;100862.34;;;19.82;71.83
6500;BME280;3283;52.330;9.772;2022-10-16T12:48:30;100862.91;;;19.69;71.83
6500;BME280;3283;52.330;9.772;2022-10-16T12:50:56;100872.00;;;19.84;70.29
6500;BME280;3283;52.330;9.772;2022-10-16T12:53:24;100879.94;;;19.67;69.35
6500;BME280;3283;52.330;9.772;2022-10-16T12:58:44;100877.50;;;19.21;71.14
6500;BME280;3283;52.330;9.772;2022-10-16T13:01:34;100889.53;;;19.11;71.35
6500;BME280;3283;52.330;9.772;2022-10-16T13:09:34;100893.94;;;19.12;71.87
6500;BME280;3283;52.330;9.772;2022-10-16T13:12:34;100886.53;;;19.19;70.73
6500;BME280;3283;52.330;9.772;2022-10-16T13:15:24;100902.72;;;19.14;72.17
6500;BME280;3283;52.330;9.772;2022-10-16T13:20:36;100898.25;;;19.15;71.93
6500;BME280;3283;52.330;9.772;2022-10-16T13:26:01;100913.47;;;19.33;73.52
6500;BME280;3283;52.330;9.772;2022-10-16T13:28:31;100913.66;;;19.49;72.64
6500;BME280;3283;52.330;9.772;2022-10-16T13:30:59;100917.53;;;19.42;71.90
6500;BME280;3283;52.330;9.772;2022-10-16T13:35:55;100915.47;;;19.08;72.74
6500;BME280;3283;52.330;9.772;2022-10-16T13:38:28;100919.75;;;19.12;73.17
6500;BME280;3283;52.330;9.772;2022-10-16T13:40:57;100914.44;;;19.31;73.03
6500;BME280;3283;52.330;9.772;2022-10-16T13:46:04;100917.53;;;19.42;72.00
6500;BME280;3283;52.330;9.772;2022-10-16T13:48:31;100922.19;;;19.37;71.81
6500;BME280;3283;52.330;9.772;2022-10-16T13:51:12;100921.66;;;19.49;72.09
6500;BME280;3283;52.330;9.772;2022-10-16T13:53:38;100918.94;;;19.30;72.14
6500;BME280;3283;52.330;9.772;2022-10-16T13:56:06;100919.53;;;19.16;72.67
6500;BME280;3283;52.330;9.772;2022-10-16T13:58:32;100911.22;;;19.04;72.99
6500;BME280;3283;52.330;9.772;2022-10-16T14:01:00;100930.47;;;18.90;72.84
6500;BME280;3283;52.330;9.772;2022-10-16T14:03:28;100934.44;;;18.80;74.01
6500;BME280;3283;52.330;9.772;2022-10-16T14:05:57;100933.19;;;18.68;74.03
6500;BME280;3283;52.330;9.772;2022-10-16T14:08:26;100934.34;;;18.61;74.86
6500;BME280;3283;52.330;9.772;2022-10-16T14:10:54;100935.53;;;18.54;74.05
6500;BME280;3283;52.330;9.772;2022-10-16T14:15:53;100949.56;;;18.57;74.59
6500;BME280;3283;52.330;9.772;2022-10-16T14:18:22;100940.34;;;18.66;75.08
6500;BME280;3283;52.330;9.772;2022-10-16T14:20:48;100951.63;;;18.73;74.52
6500;BME280;3283;52.330;9.772;2022-10-16T14:23:23;100957.66;;;18.78;73.99
6500;BME280;3283;52.330;9.772;2022-10-16T14:25:53;100953.94;;;18.82;74.10
6500;BME280;3283;52.330;9.772;2022-10-16T14:28:23;100960.06;;;18.84;73.83
6500;BME280;3283;52.330;9.772;2022-10-16T14:30:53;100965.66;;;18.78;73.87
6500;BME280;3283;52.330;9.772;2022-10-16T14:33:25;100962.31;;;18.73;73.88
6500;BME280;3283;52.330;9.772;2022-10-16T14:38:36;100963.13;;;18.75;74.41
6500;BME280;3283;52.330;9.772;2022-10-16T14:41:04;100959.63;;;18.73;74.87
6500;BME280;3283;52.330;9.772;2022-10-16T14:43:36;100963.16;;;18.73;74.95
6500;BME280;3283;52.330;9.772;2022-10-16T14:46:05;100963.22;;;18.72;76.14
6500;BME280;3283;52.330;9.772;2022-10-16T14:48:32;100966.94;;;18.67;74.81
6500;BME280;3283;52.330;9.772;2022-10-16T14:50:57;100967.28;;;18.58;74.12
6500;BME280;3283;52.330;9.772;2022-10-16T14:53:23;100972.88;;;18.52;75.23
6500;BME280;3283;52.330;9.772;2022-10-16T14:55:49;100974.75;;;18.50;76.03
6500;BME280;3283;52.330;9.772;2022-10-16T14:58:21;100974.81;;;18.49;75.66
6500;BME280;3283;52.330;9.772;2022-10-16T15:00:48;100973.25;;;18.43;75.58
6500;BME280;3283;52.330;9.772;2022-10-16T15:03:14;100967.22;;;18.38;76.64
6500;BME280;3283;52.330;9.772;2022-10-16T15:05:39;100972.53;;;18.39;77.63
6500;BME280;3283;52.330;9.772;2022-10-16T15:08:05;100970.94;;;18.34;77.00
6500;BME280;3283;52.330;9.772;2022-10-16T15:10:42;100975.53;;;18.30;77.51